createdAt,value
2022-08-27T00:02:08.328Z,98238.97
2022-08-27T00:04:37.543Z,98229.31
2022-08-27T00:07:06.478Z,98234.72
2022-08-27T00:09:34.908Z,98237.84
2022-08-27T00:12:06.108Z,98234.53
2022-08-27T00:14:34.614Z,98234.00
2022-08-27T00:17:02.232Z,98232.91
2022-08-27T00:19:29.641Z,98232.38
2022-08-27T00:21:57.317Z,98228.78
2022-08-27T00:24:24.944Z,98234.84
2022-08-27T00:26:53.822Z,98228.16
2022-08-27T00:29:21.724Z,98224.63
2022-08-27T00:31:49.498Z,98229.56
2022-08-27T00:34:22.983Z,98220.22
2022-08-27T00:36:50.657Z,98220.19
2022-08-27T00:39:18.066Z,98221.88
2022-08-27T00:41:45.393Z,98229.59
2022-08-27T00:44:13.979Z,98226.56
2022-08-27T00:46:56.897Z,98227.38
2022-08-27T00:49:46.839Z,98214.13
2022-08-27T00:52:45.072Z,98228.47
2022-08-27T00:55:32.138Z,98217.19
2022-08-27T00:58:27.779Z,98222.41
2022-08-27T01:00:57.057Z,98216.38
2022-08-27T01:03:26.528Z,98213.59
2022-08-27T01:05:58.588Z,98203.63
2022-08-27T01:08:32.344Z,98204.47
2022-08-27T01:11:00.908Z,98208.06
2022-08-27T01:13:54.037Z,98200.59
2022-08-27T01:16:41.120Z,98186.81
2022-08-27T01:19:38.041Z,98187.34
2022-08-27T01:23:19.493Z,98194.53
2022-08-27T01:25:47.759Z,98197.56
2022-08-27T01:28:16.417Z,98192.88
2022-08-27T01:30:45.292Z,98189.28
2022-08-27T01:33:20.248Z,98182.38
2022-08-27T01:35:52.234Z,98188.72
2022-08-27T01:38:30.983Z,98193.84
2022-08-27T01:41:01.219Z,98196.13
2022-08-27T01:43:31.388Z,98194.19
2022-08-27T01:45:59.536Z,98194.19
2022-08-27T01:50:54.957Z,98194.66
2022-08-27T01:53:26.476Z,98189.41
2022-08-27T01:55:56.571Z,98195.50
2022-08-27T01:58:30.717Z,98201.78
2022-08-27T02:01:10.322Z,98196.75
2022-08-27T02:03:40.064Z,98194.69
2022-08-27T02:06:12.169Z,98196.00
2022-08-27T02:08:40.372Z,98181.38
2022-08-27T02:11:08.565Z,98190.41
2022-08-27T02:13:39.251Z,98196.44
2022-08-27T02:16:06.908Z,98195.13
2022-08-27T02:18:38.414Z,98188.22
2022-08-27T02:21:09.191Z,98186.53
2022-08-27T02:23:36.505Z,98187.94
2022-08-27T02:26:05.003Z,98182.53
2022-08-27T02:28:32.320Z,98179.22
2022-08-27T02:31:00.798Z,98181.09
2022-08-27T02:33:28.213Z,98177.22
2022-08-27T02:35:55.664Z,98177.09
2022-08-27T02:38:25.771Z,98174.75
2022-08-27T02:40:54.181Z,98170.16
2022-08-27T02:43:25.277Z,98176.47
2022-08-27T02:45:53.148Z,98186.31
2022-08-27T02:48:21.458Z,98186.81
2022-08-27T02:50:48.810Z,98175.88
2022-08-27T02:53:17.736Z,98172.31
2022-08-27T02:55:46.484Z,98175.28
2022-08-27T02:58:16.833Z,98164.84
2022-08-27T03:00:45.098Z,98171.75
2022-08-27T03:03:12.515Z,98166.53
2022-08-27T03:05:40.105Z,98164.00
2022-08-27T03:08:08.799Z,98155.09
2022-08-27T03:10:36.653Z,98143.25
2022-08-27T03:13:05.151Z,98147.13
2022-08-27T03:15:35.573Z,98146.59
2022-08-27T03:18:22.585Z,98154.31
2022-08-27T03:20:55.998Z,98151.56
2022-08-27T03:23:32.902Z,98145.00
2022-08-27T03:26:09.928Z,98141.41
2022-08-27T03:28:39.263Z,98143.81
2022-08-27T03:31:26.693Z,98144.34
2022-08-27T03:34:03.985Z,98144.03
2022-08-27T03:36:32.111Z,98144.81
2022-08-27T03:38:59.503Z,98142.13
2022-08-27T03:41:55.033Z,98147.06
2022-08-27T03:44:21.394Z,98135.25
2022-08-27T03:46:51.793Z,98122.47
2022-08-27T03:49:21.595Z,98128.66
2022-08-27T03:51:52.721Z,98133.56
2022-08-27T03:54:21.016Z,98130.81
2022-08-27T03:56:49.030Z,98139.38
2022-08-27T03:59:17.241Z,98135.69
2022-08-27T04:01:45.495Z,98137.69
2022-08-27T04:04:13.182Z,98138.09
2022-08-27T04:06:41.293Z,98134.81
2022-08-27T04:09:08.847Z,98124.72
2022-08-27T04:11:36.732Z,98133.50
2022-08-27T04:14:18.206Z,98128.16
2022-08-27T04:16:56.698Z,98129.28
2022-08-27T04:19:28.486Z,98130.19
2022-08-27T04:22:03.863Z,98127.97
2022-08-27T04:24:35.417Z,98124.78
2022-08-27T04:27:05.762Z,98137.44
2022-08-27T04:29:33.733Z,98132.00
2022-08-27T04:32:02.516Z,98131.44
2022-08-27T04:34:30.878Z,98130.03
2022-08-27T04:36:59.664Z,98132.81
2022-08-27T04:39:29.323Z,98133.91
2022-08-27T04:42:00.591Z,98141.31
2022-08-27T04:44:32.881Z,98145.75
2022-08-27T04:47:06.261Z,98148.53
2022-08-27T04:49:34.068Z,98143.00
2022-08-27T04:52:02.132Z,98139.97
2022-08-27T04:54:32.801Z,98149.59
2022-08-27T04:57:03.976Z,98143.56
2022-08-27T04:59:33.433Z,98139.47
2022-08-27T05:02:04.510Z,98143.31
2022-08-27T05:04:40.866Z,98146.63
2022-08-27T05:07:10.431Z,98153.75
2022-08-27T05:09:38.749Z,98154.31
2022-08-27T05:12:06.795Z,98149.53
2022-08-27T05:14:34.109Z,98149.88
2022-08-27T05:17:04.440Z,98151.25
2022-08-27T05:19:32.137Z,98156.13
2022-08-27T05:21:59.438Z,98155.91
2022-08-27T05:24:26.806Z,98159.16
2022-08-27T05:26:54.332Z,98161.50
2022-08-27T05:29:22.304Z,98157.91
2022-08-27T05:31:49.780Z,98159.25
2022-08-27T05:34:22.536Z,98160.66
2022-08-27T05:36:54.530Z,98152.94
2022-08-27T05:39:21.889Z,98162.56
2022-08-27T05:41:52.346Z,98163.97
2022-08-27T05:44:40.029Z,98165.06
2022-08-27T05:47:07.018Z,98170.03
2022-08-27T05:49:34.315Z,98155.44
2022-08-27T05:52:01.704Z,98168.94
2022-08-27T05:54:29.896Z,98165.38
2022-08-27T05:56:57.259Z,98163.19
2022-08-27T05:59:43.101Z,98168.16
2022-08-27T06:02:11.063Z,98163.16
2022-08-27T06:04:38.421Z,98159.88
2022-08-27T06:07:10.012Z,98159.63
2022-08-27T06:09:38.619Z,98160.41
2022-08-27T06:12:07.407Z,98160.19
2022-08-27T06:14:37.399Z,98165.72
2022-08-27T06:17:06.452Z,98160.75
2022-08-27T06:19:34.833Z,98165.97
2022-08-27T06:22:10.304Z,98163.50
2022-08-27T06:24:41.854Z,98165.72
2022-08-27T06:27:18.977Z,98160.44
2022-08-27T06:29:47.012Z,98156.38
2022-08-27T06:32:15.155Z,98161.28
2022-08-27T06:37:09.861Z,98165.22
2022-08-27T06:39:39.769Z,98160.75
2022-08-27T06:42:13.599Z,98162.22
2022-08-27T06:44:41.925Z,98161.38
2022-08-27T06:47:09.929Z,98173.44
2022-08-27T06:49:41.377Z,98159.66
2022-08-27T06:52:11.136Z,98164.66
2022-08-27T06:54:40.248Z,98175.16
2022-08-27T06:57:07.933Z,98171.00
2022-08-27T06:59:35.877Z,98179.28
2022-08-27T07:02:03.725Z,98172.59
2022-08-27T07:04:32.802Z,98167.34
2022-08-27T07:07:02.718Z,98167.63
2022-08-27T07:09:32.613Z,98166.06
2022-08-27T07:12:01.700Z,98171.00
2022-08-27T07:14:34.195Z,98163.00
2022-08-27T07:17:05.800Z,98172.13
2022-08-27T07:19:40.807Z,98179.56
2022-08-27T07:22:08.904Z,98173.81
2022-08-27T07:24:37.568Z,98186.19
2022-08-27T07:27:05.429Z,98176.53
2022-08-27T07:29:33.132Z,98186.47
2022-08-27T07:32:00.657Z,98180.69
2022-08-27T07:34:28.468Z,98183.19
2022-08-27T07:36:55.913Z,98179.06
2022-08-27T07:39:23.780Z,98181.53
2022-08-27T07:42:16.370Z,98188.69
2022-08-27T07:44:43.945Z,98185.13
2022-08-27T07:47:11.504Z,98191.44
2022-08-27T07:52:06.972Z,98193.66
2022-08-27T07:54:34.854Z,98193.34
2022-08-27T07:57:02.227Z,98201.41
2022-08-27T07:59:29.580Z,98188.09
2022-08-27T08:01:57.623Z,98205.81
2022-08-27T08:04:26.669Z,98203.00
2022-08-27T08:06:55.880Z,98205.78
2022-08-27T08:09:24.935Z,98206.41
2022-08-27T08:11:54.019Z,98210.16
2022-08-27T08:14:22.254Z,98216.00
2022-08-27T08:16:49.755Z,98212.72
2022-08-27T08:19:17.643Z,98213.53
2022-08-27T08:21:45.106Z,98214.13
2022-08-27T08:24:12.453Z,98211.94
2022-08-27T08:26:41.958Z,98221.59
2022-08-27T08:29:09.636Z,98222.41
2022-08-27T08:31:45.690Z,98227.16
2022-08-27T08:34:19.668Z,98230.19
2022-08-27T08:36:52.435Z,98218.88
2022-08-27T08:39:23.888Z,98214.72
2022-08-27T08:42:03.117Z,98220.25
2022-08-27T08:44:49.519Z,98218.88
2022-08-27T08:47:52.257Z,98217.22
2022-08-27T08:50:53.615Z,98211.94
2022-08-27T08:54:07.910Z,98207.53
2022-08-27T08:57:25.357Z,98208.66
2022-08-27T09:00:05.829Z,98217.44
2022-08-27T09:02:33.166Z,98214.69
2022-08-27T09:05:09.196Z,98211.63
2022-08-27T09:08:34.230Z,98216.59
2022-08-27T09:11:46.551Z,98218.47
2022-08-27T09:14:45.185Z,98213.53
2022-08-27T09:17:14.813Z,98216.28
2022-08-27T09:19:42.941Z,98212.94
2022-08-27T09:23:01.828Z,98204.69
2022-08-27T09:25:40.200Z,98208.44
2022-08-27T09:28:46.282Z,98207.59
2022-08-27T09:31:21.039Z,98209.31
2022-08-27T09:33:56.012Z,98212.38
2022-08-27T09:36:24.882Z,98217.47
2022-08-27T09:39:04.548Z,98216.13
2022-08-27T09:41:45.565Z,98214.75
2022-08-27T09:44:20.778Z,98212.91
2022-08-27T09:47:03.796Z,98213.75
2022-08-27T09:49:34.637Z,98217.78
2022-08-27T09:52:02.399Z,98213.81
2022-08-27T09:54:48.014Z,98205.88
2022-08-27T09:57:40.360Z,98207.88
2022-08-27T10:00:17.533Z,98204.97
2022-08-27T10:02:54.013Z,98203.22
2022-08-27T10:05:43.953Z,98204.66
2022-08-27T10:08:50.229Z,98202.41
2022-08-27T10:11:48.101Z,98195.69
2022-08-27T10:14:46.541Z,98197.59
2022-08-27T10:18:10.075Z,98197.63
2022-08-27T10:21:28.237Z,98198.16
2022-08-27T10:25:13.758Z,98195.06
2022-08-27T10:28:48.256Z,98189.00
2022-08-27T10:32:12.570Z,98187.69
2022-08-27T10:35:04.289Z,98181.38
2022-08-27T10:38:41.165Z,98186.22
2022-08-27T10:41:41.848Z,98181.50
2022-08-27T10:44:39.480Z,98191.50
2022-08-27T10:47:50.337Z,98166.56
2022-08-27T10:51:04.626Z,98171.75
2022-08-27T10:54:13.217Z,98175.91
2022-08-27T10:58:02.111Z,98168.75
2022-08-27T11:01:23.542Z,98164.84
2022-08-27T11:04:10.523Z,98164.84
2022-08-27T11:07:49.046Z,98160.34
2022-08-27T11:10:34.033Z,98157.88
2022-08-27T11:13:17.850Z,98159.63
2022-08-27T11:15:52.187Z,98160.47
2022-08-27T11:18:59.494Z,98158.75
2022-08-27T11:22:00.643Z,98157.72
2022-08-27T11:25:35.670Z,98153.31
2022-08-27T11:28:05.939Z,98136.66
2022-08-27T11:30:45.650Z,98142.53
2022-08-27T11:34:18.748Z,98141.25
2022-08-27T11:37:21.988Z,98146.44
2022-08-27T11:41:02.828Z,98135.03
2022-08-27T11:43:36.897Z,98134.09
2022-08-27T11:46:08.809Z,98132.34
2022-08-27T11:48:54.937Z,98128.28
2022-08-27T11:51:37.076Z,98126.50
2022-08-27T11:54:26.081Z,98118.06
2022-08-27T11:56:53.575Z,98119.50
2022-08-27T11:59:33.690Z,98112.25
2022-08-27T12:02:29.508Z,98107.56
2022-08-27T12:05:33.256Z,98098.66
2022-08-27T12:08:23.739Z,98105.91
2022-08-27T12:11:44.848Z,98091.69
2022-08-27T12:14:45.834Z,98099.56
2022-08-27T12:17:45.459Z,98101.38
2022-08-27T12:20:56.736Z,98097.41
2022-08-27T12:23:57.780Z,98101.38
2022-08-27T12:26:26.601Z,98093.50
2022-08-27T12:30:21.112Z,98098.25
2022-08-27T12:32:52.502Z,98089.09
2022-08-27T12:35:52.476Z,98095.69
2022-08-27T12:38:36.700Z,98086.47
2022-08-27T12:41:09.204Z,98088.78
2022-08-27T12:43:43.329Z,98077.47
2022-08-27T12:46:20.076Z,98075.75
2022-08-27T12:49:02.717Z,98073.69
2022-08-27T12:51:48.907Z,98064.75
2022-08-27T12:55:39.666Z,98067.06
2022-08-27T12:59:05.916Z,98059.50
2022-08-27T13:02:28.654Z,98061.56
2022-08-27T13:04:56.195Z,98055.09
2022-08-27T13:07:38.778Z,98057.22
2022-08-27T13:10:31.762Z,98059.31
2022-08-27T13:13:20.584Z,98056.22
2022-08-27T13:16:01.717Z,98057.22
2022-08-27T13:18:30.527Z,98062.56
2022-08-27T13:21:29.363Z,98063.84
2022-08-27T13:24:06.676Z,98074.13
2022-08-27T13:26:38.698Z,98067.16
2022-08-27T13:29:08.528Z,98065.13
2022-08-27T13:31:36.764Z,98062.63
2022-08-27T13:34:06.663Z,98053.78
2022-08-27T13:37:05.976Z,98055.06
2022-08-27T13:39:38.535Z,98047.28
2022-08-27T13:42:09.121Z,98046.88
2022-08-27T13:44:44.505Z,98042.34
2022-08-27T13:47:26.200Z,98036.25
2022-08-27T13:50:17.954Z,98035.88
2022-08-27T13:53:03.932Z,98041.59
2022-08-27T13:55:33.625Z,98047.34
2022-08-27T13:58:11.490Z,98046.50
2022-08-27T14:00:38.937Z,98048.53
2022-08-27T14:03:34.300Z,98041.59
2022-08-27T14:06:02.627Z,98045.94
2022-08-27T14:08:36.868Z,98042.91
2022-08-27T14:11:09.637Z,98050.81
2022-08-27T14:13:48.126Z,98039.91
2022-08-27T14:16:32.079Z,98047.78
2022-08-27T14:19:36.330Z,98050.25
2022-08-27T14:22:05.051Z,98057.88
2022-08-27T14:24:32.372Z,98063.63
2022-08-27T14:27:15.186Z,98064.97
2022-08-27T14:29:43.262Z,98078.03
2022-08-27T14:32:10.603Z,98082.59
2022-08-27T14:34:38.416Z,98080.88
2022-08-27T14:37:06.039Z,98082.34
2022-08-27T14:39:34.299Z,98082.56
2022-08-27T14:42:02.664Z,98094.75
2022-08-27T14:44:32.689Z,98095.00
2022-08-27T14:47:00.244Z,98099.19
2022-08-27T14:49:42.320Z,98109.81
2022-08-27T14:52:10.691Z,98112.09
2022-08-27T14:54:38.919Z,98110.59
2022-08-27T14:57:08.769Z,98101.59
2022-08-27T14:59:38.514Z,98106.44
2022-08-27T15:02:13.698Z,98104.38
2022-08-27T15:04:42.307Z,98098.44
2022-08-27T15:07:13.807Z,98103.91
2022-08-27T15:09:49.684Z,98105.41
2022-08-27T15:12:25.841Z,98119.53
2022-08-27T15:14:54.640Z,98113.88
2022-08-27T15:17:35.282Z,98118.13
2022-08-27T15:20:19.013Z,98118.84
2022-08-27T15:22:51.866Z,98133.13
2022-08-27T15:25:20.263Z,98117.53
2022-08-27T15:27:49.389Z,98124.91
2022-08-27T15:30:23.472Z,98135.59
2022-08-27T15:32:51.255Z,98139.53
2022-08-27T15:35:28.429Z,98124.34
2022-08-27T15:37:57.941Z,98144.63
2022-08-27T15:40:32.395Z,98143.97
2022-08-27T15:43:07.186Z,98142.16
2022-08-27T15:45:35.289Z,98137.03
2022-08-27T15:48:03.187Z,98146.69
2022-08-27T15:50:32.200Z,98143.13
2022-08-27T15:53:08.016Z,98140.00
2022-08-27T15:55:44.184Z,98148.72
2022-08-27T15:58:11.602Z,98150.88
2022-08-27T16:00:39.942Z,98150.16
2022-08-27T16:03:13.900Z,98157.22
2022-08-27T16:05:45.572Z,98153.66
2022-08-27T16:08:14.404Z,98156.13
2022-08-27T16:10:41.942Z,98158.38
2022-08-27T16:13:09.276Z,98158.81
2022-08-27T16:15:40.720Z,98159.91
2022-08-27T16:18:09.933Z,98157.69
2022-08-27T16:20:37.396Z,98147.94
2022-08-27T16:23:05.125Z,98145.69
2022-08-27T16:25:32.436Z,98156.72
2022-08-27T16:28:01.742Z,98148.06
2022-08-27T16:30:30.040Z,98151.97
2022-08-27T16:32:58.076Z,98151.28
2022-08-27T16:35:25.575Z,98146.44
2022-08-27T16:37:52.913Z,98147.03
2022-08-27T16:40:20.956Z,98130.88
2022-08-27T16:42:51.770Z,98141.72
2022-08-27T16:45:23.632Z,98132.88
2022-08-27T16:48:10.612Z,98132.75
2022-08-27T16:50:40.741Z,98136.53
2022-08-27T16:53:16.132Z,98129.09
2022-08-27T16:55:48.965Z,98121.00
2022-08-27T16:58:29.002Z,98124.25
2022-08-27T17:01:07.194Z,98116.06
2022-08-27T17:04:08.025Z,98115.19
2022-08-27T17:06:39.735Z,98121.00
2022-08-27T17:09:07.969Z,98128.06
2022-08-27T17:11:40.429Z,98124.25
2022-08-27T17:14:13.391Z,98132.59
2022-08-27T17:16:41.609Z,98119.44
2022-08-27T17:19:10.243Z,98129.56
2022-08-27T17:21:45.333Z,98126.13
2022-08-27T17:24:13.185Z,98128.06
2022-08-27T17:26:40.673Z,98130.03
2022-08-27T17:29:08.614Z,98133.16
2022-08-27T17:31:41.412Z,98134.53
2022-08-27T17:34:21.732Z,98133.69
2022-08-27T17:36:49.498Z,98148.38
2022-08-27T17:39:18.685Z,98136.94
2022-08-27T17:41:52.947Z,98148.69
2022-08-27T17:44:37.310Z,98147.78
2022-08-27T17:47:08.980Z,98142.19
2022-08-27T17:49:37.544Z,98144.59
2022-08-27T17:52:16.061Z,98139.53
2022-08-27T17:54:56.282Z,98145.09
2022-08-27T17:57:40.259Z,98142.38
2022-08-27T18:00:13.242Z,98145.72
2022-08-27T18:02:49.384Z,98143.59
2022-08-27T18:05:21.930Z,98147.84
2022-08-27T18:07:49.896Z,98148.19
2022-08-27T18:10:24.893Z,98148.50
2022-08-27T18:12:55.509Z,98149.75
2022-08-27T18:15:29.973Z,98151.75
2022-08-27T18:17:58.082Z,98163.47
2022-08-27T18:20:29.579Z,98153.22
2022-08-27T18:23:04.492Z,98155.72
2022-08-27T18:25:36.106Z,98162.13
2022-08-27T18:28:11.090Z,98163.72
2022-08-27T18:30:43.405Z,98164.34
2022-08-27T18:33:13.024Z,98165.47
2022-08-27T18:35:42.118Z,98172.97
2022-08-27T18:38:09.696Z,98172.22
2022-08-27T18:40:46.936Z,98172.13
2022-08-27T18:43:18.117Z,98175.56
2022-08-27T18:45:45.935Z,98172.94
2022-08-27T18:48:22.493Z,98181.38
2022-08-27T18:50:58.596Z,98179.09
2022-08-27T18:53:33.376Z,98174.06
2022-08-27T18:56:02.343Z,98181.22
2022-08-27T18:58:29.870Z,98186.19
2022-08-27T19:01:06.023Z,98185.94
2022-08-27T19:03:42.735Z,98190.88
2022-08-27T19:06:11.392Z,98196.97
2022-08-27T19:08:42.145Z,98202.22
2022-08-27T19:11:10.174Z,98195.34
2022-08-27T19:13:37.603Z,98198.47
2022-08-27T19:16:46.023Z,98201.81
2022-08-27T19:19:16.795Z,98206.13
2022-08-27T19:21:49.290Z,98205.41
2022-08-27T19:24:21.792Z,98208.41
2022-08-27T19:26:51.044Z,98213.44
2022-08-27T19:29:19.911Z,98219.72
2022-08-27T19:31:49.264Z,98220.56
2022-08-27T19:34:16.909Z,98218.47
2022-08-27T19:36:44.666Z,98221.19
2022-08-27T19:39:13.771Z,98223.66
2022-08-27T19:41:41.337Z,98225.88
2022-08-27T19:44:08.844Z,98217.88
2022-08-27T19:46:37.823Z,98226.09
2022-08-27T19:49:05.346Z,98231.13
2022-08-27T19:51:32.713Z,98235.00
2022-08-27T19:54:00.857Z,98228.38
2022-08-27T19:56:31.904Z,98238.72
2022-08-27T19:59:08.715Z,98236.69
2022-08-27T20:01:44.102Z,98246.72
2022-08-27T20:04:11.437Z,98236.44
2022-08-27T20:06:38.866Z,98236.19
2022-08-27T20:09:08.420Z,98235.59
2022-08-27T20:11:36.156Z,98243.94
2022-08-27T20:14:03.459Z,98246.19
2022-08-27T20:16:31.688Z,98250.84
2022-08-27T20:19:00.534Z,98252.53
2022-08-27T20:21:28.708Z,98243.44
2022-08-27T20:23:56.824Z,98243.16
2022-08-27T20:26:24.998Z,98258.91
2022-08-27T20:28:53.201Z,98258.59
2022-08-27T20:31:20.551Z,98264.97
2022-08-27T20:33:47.998Z,98258.06
2022-08-27T20:36:15.564Z,98264.94
2022-08-27T20:38:42.985Z,98259.72
2022-08-27T20:41:10.304Z,98264.69
2022-08-27T20:43:37.671Z,98260.00
2022-08-27T20:46:05.334Z,98263.03
2022-08-27T20:48:32.805Z,98265.84
2022-08-27T20:51:00.890Z,98266.38
2022-08-27T20:53:28.421Z,98256.72
2022-08-27T20:55:56.761Z,98260.56
2022-08-27T20:58:44.787Z,98254.22
2022-08-27T21:01:12.691Z,98257.25
2022-08-27T21:03:40.232Z,98250.38
2022-08-27T21:06:08.545Z,98259.19
2022-08-27T21:08:39.316Z,98253.41
2022-08-27T21:11:17.887Z,98244.00
2022-08-27T21:13:55.739Z,98259.97
2022-08-27T21:16:25.549Z,98264.16
2022-08-27T21:18:53.779Z,98260.31
2022-08-27T21:21:21.369Z,98259.13
2022-08-27T21:23:49.042Z,98257.22
2022-08-27T21:26:16.358Z,98259.41
2022-08-27T21:28:44.456Z,98267.94
2022-08-27T21:31:11.831Z,98259.13
2022-08-27T21:33:40.080Z,98254.16
2022-08-27T21:36:11.956Z,98251.41
2022-08-27T21:38:40.332Z,98252.75
2022-08-27T21:41:08.832Z,98249.16
2022-08-27T21:43:36.168Z,98250.28
2022-08-27T21:46:04.728Z,98257.16
2022-08-27T21:48:32.033Z,98259.06
2022-08-27T21:50:59.434Z,98262.16
2022-08-27T21:53:27.553Z,98260.69
2022-08-27T21:55:55.020Z,98259.06
2022-08-27T21:58:26.260Z,98263.50
2022-08-27T22:00:54.300Z,98257.69
2022-08-27T22:03:24.989Z,98258.78
2022-08-27T22:05:53.044Z,98248.00
2022-08-27T22:08:22.648Z,98250.75
2022-08-27T22:10:57.974Z,98256.25
2022-08-27T22:13:26.652Z,98256.78
2022-08-27T22:15:54.223Z,98254.78
2022-08-27T22:18:23.026Z,98244.81
2022-08-27T22:20:53.227Z,98249.00
2022-08-27T22:23:21.730Z,98247.28
2022-08-27T22:25:49.032Z,98244.78
2022-08-27T22:28:17.795Z,98249.81
2022-08-27T22:30:46.355Z,98252.28
2022-08-27T22:33:15.146Z,98248.41
2022-08-27T22:35:42.888Z,98250.31
2022-08-27T22:38:12.210Z,98250.03
2022-08-27T22:40:40.236Z,98251.66
2022-08-27T22:43:08.583Z,98260.25
2022-08-27T22:45:35.888Z,98258.88
2022-08-27T22:48:03.635Z,98261.03
2022-08-27T22:50:30.996Z,98253.06
2022-08-27T22:52:58.424Z,98256.34
2022-08-27T22:55:25.785Z,98274.78
2022-08-27T22:57:55.762Z,98270.09
2022-08-27T23:00:32.796Z,98264.25
2022-08-27T23:03:02.085Z,98272.78
2022-08-27T23:05:40.283Z,98272.81
2022-08-27T23:08:12.350Z,98276.69
2022-08-27T23:10:42.594Z,98276.31
2022-08-27T23:13:13.714Z,98271.66
2022-08-27T23:15:42.175Z,98274.19
2022-08-27T23:18:10.181Z,98269.47
2022-08-27T23:20:38.358Z,98271.66
2022-08-27T23:23:07.988Z,98279.88
2022-08-27T23:25:53.987Z,98268.81
2022-08-27T23:28:21.953Z,98275.50
2022-08-27T23:30:50.197Z,98272.09
2022-08-27T23:33:18.070Z,98274.94
2022-08-27T23:35:48.192Z,98263.66
2022-08-27T23:38:19.777Z,98274.88
2022-08-27T23:40:49.762Z,98275.44
2022-08-27T23:43:18.325Z,98272.66
2022-08-27T23:45:46.216Z,98269.78
2022-08-27T23:48:14.183Z,98275.06
2022-08-27T23:50:42.425Z,98269.31
2022-08-27T23:53:11.796Z,98268.19
2022-08-27T23:55:40.983Z,98272.00
2022-08-27T23:58:09.930Z,98280.28
